Time;durP1;ratioP1;P1;durP2;ratioP2;P2;SDS_P1;SDS_P2;PMS_P1;PMS_P2;Temp;Humidity;BMP_temperature;BMP_pressure;BME280_temperature;BME280_humidity;BME280_pressure;Samples;Min_cycle;Max_cycle;Signal;HPM_P1;HPM_P2
2022/09/03 00:01:33;;;;;;;28.55;11.60;;;;;;;13.94;59.36;100961.63;5114033;28;20027;-44
2022/09/03 00:04:05;;;;;;;22.27;10.82;;;;;;;13.97;60.14;100959.97;5113502;28;20035;-43
2022/09/03 00:06:37;;;;;;;21.45;10.63;;;;;;;14.00;59.45;100956.56;5114029;28;20526;-47
2022/09/03 00:09:12;;;;;;;21.08;11.00;;;;;;;13.94;59.79;100956.47;5114072;28;20042;-44
2022/09/03 00:11:54;;;;;;;22.23;10.90;;;;;;;13.89;59.55;100952.91;5113372;28;20027;-44
2022/09/03 00:14:25;;;;;;;20.67;9.95;;;;;;;13.86;60.40;100952.88;5113745;28;20034;-43
2022/09/03 00:16:59;;;;;;;16.23;10.50;;;;;;;13.88;59.74;100952.06;5113809;28;20122;-45
2022/09/03 00:19:30;;;;;;;17.90;10.45;;;;;;;13.96;59.76;100955.63;5113054;28;20039;-43
2022/09/03 00:22:09;;;;;;;19.20;10.93;;;;;;;13.90;59.36;100952.94;5113993;28;20034;-43
2022/09/03 00:24:38;;;;;;;20.10;11.23;;;;;;;13.84;60.18;100950.25;5112882;28;20373;-45
2022/09/03 00:27:10;;;;;;;18.02;10.80;;;;;;;13.87;60.70;100955.47;5113503;28;20497;-44
2022/09/03 00:29:45;;;;;;;20.65;11.60;;;;;;;13.78;60.51;100948.41;5113909;28;20433;-43
2022/09/03 00:32:22;;;;;;;18.98;11.35;;;;;;;13.70;60.90;100952.59;5112691;28;20489;-43
2022/09/03 00:34:56;;;;;;;22.92;11.63;;;;;;;13.74;60.75;100951.78;5113846;28;20019;-44
2022/09/03 00:37:22;;;;;;;20.60;12.55;;;;;;;13.67;61.12;100952.50;5113459;28;20030;-43
2022/09/03 00:39:47;;;;;;;21.98;11.63;;;;;;;13.76;61.05;100947.53;5112731;28;20024;-46
2022/09/03 00:42:54;;;;;;;20.23;11.32;;;;;;;13.81;60.19;100956.25;5113234;28;20039;-44
2022/09/03 00:45:35;;;;;;;16.75;11.57;;;;;;;13.77;60.32;100954.44;5112823;28;20355;-44
2022/09/03 00:48:25;;;;;;;17.05;11.18;;;;;;;13.71;60.76;100953.44;5113317;28;20106;-43
2022/09/03 00:51:42;;;;;;;19.73;12.38;;;;;;;13.69;60.43;100953.44;5113608;28;20081;-43
2022/09/03 00:54:34;;;;;;;21.20;12.18;;;;;;;13.75;60.80;100953.56;5067235;28;20046;-47
2022/09/03 00:57:34;;;;;;;21.02;11.95;;;;;;;13.75;60.20;100953.56;5113429;28;20375;-44
2022/09/03 01:00:09;;;;;;;20.13;11.60;;;;;;;13.71;60.73;100951.75;5112474;28;20028;-43
2022/09/03 01:03:10;;;;;;;22.60;11.35;;;;;;;13.66;60.23;100950.78;5113220;28;20050;-45
2022/09/03 01:05:49;;;;;;;23.45;11.95;;;;;;;13.50;61.52;100945.31;5043727;28;20036;-45
2022/09/03 01:08:32;;;;;;;28.33;12.35;;;;;;;13.67;60.62;100947.34;5112373;28;20023;-43
2022/09/03 01:11:22;;;;;;;21.25;12.13;;;;;;;13.67;60.53;100947.34;5113149;28;20025;-44
2022/09/03 01:14:05;;;;;;;18.38;11.18;;;;;;;13.67;60.44;100942.16;5112606;28;20028;-47
2022/09/03 01:16:45;;;;;;;18.30;11.95;;;;;;;13.60;61.39;100942.91;5113262;28;20024;-43
2022/09/03 01:19:29;;;;;;;22.23;12.40;;;;;;;13.58;61.44;100947.16;5113097;28;20031;-42
2022/09/03 01:22:19;;;;;;;23.92;12.48;;;;;;;13.50;61.26;100945.31;5112374;28;20378;-43
2022/09/03 01:25:30;;;;;;;20.80;12.52;;;;;;;13.53;61.13;100943.63;5113345;28;20027;-46
2022/09/03 01:28:07;;;;;;;24.48;12.52;;;;;;;13.38;61.70;100945.06;5111411;28;20059;-43
2022/09/03 01:30:38;;;;;;;24.77;12.48;;;;;;;13.43;61.90;100951.22;5112831;28;20562;-43
2022/09/03 01:33:19;;;;;;;20.08;12.75;;;;;;;13.33;62.28;100949.25;5112912;28;20424;-44
2022/09/03 01:35:52;;;;;;;31.80;12.65;;;;;;;13.40;62.02;100956.34;5112286;28;20027;-43
2022/09/03 01:38:42;;;;;;;21.63;12.95;;;;;;;13.27;62.37;100957.78;5112921;28;20027;-43
2022/09/03 01:44:31;;;;;;;24.08;12.50;;;;;;;13.27;62.62;100951.72;5113032;28;20031;-43
2022/09/03 01:47:30;;;;;;;22.95;12.32;;;;;;;13.18;62.60;100942.94;5113164;28;20043;-44
2022/09/03 01:50:04;;;;;;;31.05;12.75;;;;;;;13.17;62.90;100946.34;5088597;28;20052;-44
2022/09/03 01:52:53;;;;;;;25.30;12.93;;;;;;;13.17;63.19;100941.19;5112823;28;20035;-43
2022/09/03 01:55:43;;;;;;;23.42;12.30;;;;;;;13.18;62.21;100947.22;5114650;28;20036;-42
2022/09/03 01:58:18;;;;;;;21.58;11.73;;;;;;;13.21;62.64;100949.00;5115819;27;20099;-44
2022/09/03 02:00:48;;;;;;;23.05;12.25;;;;;;;13.04;63.39;100944.38;5117132;28;20024;-43
2022/09/03 02:03:15;;;;;;;22.33;13.38;;;;;;;13.07;63.14;100947.00;5115668;28;20031;-45
2022/09/03 02:05:42;;;;;;;24.55;11.65;;;;;;;13.13;63.65;100949.72;5116549;28;20077;-49
2022/09/03 02:08:08;;;;;;;;;;;;;;;13.21;61.16;100942.13;5116803;28;20016;-43
2022/09/03 02:10:41;;;;;;;19.95;11.60;;;;;;;13.05;63.17;100945.22;5115374;28;19912;-43
2022/09/03 02:13:12;;;;;;;20.08;12.20;;;;;;;13.04;63.19;100938.31;5116521;28;20038;-43
2022/09/03 02:15:42;;;;;;;21.38;12.00;;;;;;;13.12;63.21;100936.78;5116196;28;20035;-43
2022/09/03 02:18:15;;;;;;;29.38;12.23;;;;;;;13.29;62.59;100944.88;5115509;28;20066;-44
2022/09/03 02:20:41;;;;;;;18.23;12.05;;;;;;;13.23;62.62;100940.41;5116296;28;20032;-43
2022/09/03 02:23:06;;;;;;;17.23;11.18;;;;;;;13.29;61.64;100932.78;5116133;28;20057;-43
2022/09/03 02:25:36;;;;;;;23.25;11.23;;;;;;;13.32;62.18;100940.63;5115298;28;20070;-43
2022/09/03 02:28:05;;;;;;;23.75;11.30;;;;;;;13.39;61.64;100943.34;5115879;28;20096;-43
2022/09/03 02:30:30;;;;;;;17.73;10.95;;;;;;;13.46;61.10;100937.47;5116036;28;20023;-44
2022/09/03 02:32:55;;;;;;;25.85;11.45;;;;;;;13.41;61.20;100933.91;5115095;28;20028;-44
2022/09/03 02:35:21;;;;;;;18.48;11.35;;;;;;;13.52;60.74;100937.59;5115659;28;20012;-43
2022/09/03 02:37:46;;;;;;;18.17;11.75;;;;;;;13.49;60.55;100938.41;5116084;28;20364;-42
2022/09/03 02:40:12;;;;;;;20.05;11.90;;;;;;;13.45;61.07;100936.59;5114809;28;20059;-46
2022/09/03 02:42:37;;;;;;;21.55;11.80;;;;;;;13.61;60.52;100942.06;5115679;28;20027;-44
2022/09/03 02:45:18;;;;;;;17.98;11.38;;;;;;;13.55;59.97;100936.78;5115014;27;20024;-43
2022/09/03 02:47:49;;;;;;;17.02;10.95;;;;;;;13.63;60.20;100940.34;5116095;28;20042;-45
2022/09/03 02:50:14;;;;;;;18.15;11.57;;;;;;;13.41;61.10;100932.19;5115512;28;20023;-43
2022/09/03 02:52:39;;;;;;;18.70;11.52;;;;;;;13.42;60.83;100931.34;5114639;28;20121;-44
2022/09/03 02:55:05;;;;;;;22.50;11.63;;;;;;;13.28;61.77;100935.34;5115315;28;20035;-47
2022/09/03 02:57:30;;;;;;;19.25;11.73;;;;;;;13.38;61.28;100934.72;5115302;28;20028;-44
2022/09/03 02:59:55;;;;;;;18.70;11.77;;;;;;;13.15;62.47;100937.69;5114811;28;20016;-45
2022/09/03 03:02:20;;;;;;;19.75;11.50;;;;;;;13.26;62.13;100934.44;5115259;28;20023;-46
2022/09/03 03:04:46;;;;;;;24.70;13.25;;;;;;;13.13;61.88;100943.66;5115606;28;20031;-45
2022/09/03 03:07:11;;;;;;;22.60;12.23;;;;;;;12.95;63.08;100934.69;5113800;28;20019;-43
2022/09/03 03:09:36;;;;;;;19.88;12.10;;;;;;;12.97;63.07;100937.31;5115011;28;20070;-43
2022/09/03 03:12:02;;;;;;;20.60;12.70;;;;;;;12.85;63.08;100927.56;5115018;28;20024;-43
2022/09/03 03:14:27;;;;;;;24.08;12.80;;;;;;;13.02;63.02;100935.69;5114328;28;20390;-43
2022/09/03 03:16:52;;;;;;;21.23;12.80;;;;;;;13.07;62.45;100939.25;5115303;28;20446;-43
2022/09/03 03:19:17;;;;;;;19.30;11.57;;;;;;;13.04;62.46;100938.31;5114849;28;20073;-43
2022/09/03 03:21:43;;;;;;;21.63;11.55;;;;;;;12.87;63.50;100931.06;5114325;28;20054;-43
2022/09/03 03:24:08;;;;;;;22.48;12.60;;;;;;;12.78;64.26;100928.28;5114910;28;20047;-42
2022/09/03 03:26:34;;;;;;;22.92;12.38;;;;;;;12.77;63.61;100935.16;5114860;28;20361;-43
2022/09/03 03:29:03;;;;;;;18.85;11.93;;;;;;;12.78;63.91;100936.94;5114174;28;20084;-45
2022/09/03 03:31:29;;;;;;;23.90;12.75;;;;;;;12.82;64.25;100930.97;5114811;28;20049;-43
2022/09/03 03:34:00;;;;;;;22.63;12.43;;;;;;;12.88;63.37;100934.53;5114833;27;20535;-44
2022/09/03 03:36:28;;;;;;;27.40;12.82;;;;;;;12.90;62.85;100945.75;5113944;28;20035;-44
2022/09/03 03:38:55;;;;;;;19.50;12.02;;;;;;;12.95;62.57;100938.97;5114675;28;20023;-43
2022/09/03 03:41:23;;;;;;;22.57;11.70;;;;;;;12.87;63.42;100945.72;5113431;28;20092;-43
2022/09/03 03:43:52;;;;;;;;;;;;;;;12.98;61.69;100941.66;5115110;28;20617;-43
2022/09/03 03:46:18;;;;;;;20.30;11.95;;;;;;;12.89;63.12;100946.63;5114406;28;20048;-42
2022/09/03 03:48:46;;;;;;;19.10;12.95;;;;;;;12.73;64.54;100938.53;5113522;28;20111;-45
2022/09/03 03:51:11;;;;;;;21.75;12.07;;;;;;;12.69;63.77;100941.88;5114377;28;20027;-43
2022/09/03 03:53:37;;;;;;;19.60;12.75;;;;;;;12.68;64.23;100947.91;5114290;28;20040;-43
2022/09/03 03:56:06;;;;;;;20.90;11.70;;;;;;;12.72;63.82;100941.97;5113675;28;20022;-44
2022/09/03 03:58:32;;;;;;;20.70;13.05;;;;;;;12.58;64.64;100943.38;5114356;28;20023;-43
2022/09/03 04:01:10;;;;;;;22.30;12.43;;;;;;;12.53;64.98;100940.66;5114381;28;20069;-45
2022/09/03 04:03:35;;;;;;;;;;;;;;;12.69;62.83;100936.69;5113791;28;20081;-47
2022/09/03 04:06:01;;;;;;;21.30;12.43;;;;;;;12.57;64.85;100936.44;5113923;28;19912;-42
2022/09/03 04:08:27;;;;;;;20.63;12.27;;;;;;;12.50;65.56;100928.53;5114159;28;20335;-43
2022/09/03 04:10:53;;;;;;;20.67;12.57;;;;;;;12.47;65.61;100930.16;5113450;28;20023;-44
2022/09/03 04:13:18;;;;;;;18.55;12.35;;;;;;;12.46;65.80;100937.06;5113726;27;20588;-45
2022/09/03 04:15:44;;;;;;;21.15;13.13;;;;;;;12.56;65.91;100935.53;5114026;28;20058;-44
2022/09/03 04:18:10;;;;;;;18.88;11.57;;;;;;;12.62;64.42;100943.44;5112127;28;20024;-46
2022/09/03 04:20:35;;;;;;;18.10;10.95;;;;;;;12.64;64.56;100933.13;5113722;28;20118;-45
2022/09/03 04:23:01;;;;;;;19.58;11.52;;;;;;;12.71;64.48;100935.03;5113959;28;20024;-43
2022/09/03 04:25:27;;;;;;;21.02;11.05;;;;;;;12.61;64.89;100933.06;5113080;28;20028;-45
2022/09/03 04:27:52;;;;;;;21.67;12.38;;;;;;;12.47;65.63;100925.00;5113949;28;20102;-43
2022/09/03 04:30:19;;;;;;;23.13;11.18;;;;;;;12.48;64.96;100926.75;5113502;28;20562;-45
2022/09/03 04:32:53;;;;;;;16.83;11.77;;;;;;;12.56;65.08;100929.50;5112915;28;20050;-44
2022/09/03 04:35:24;;;;;;;20.42;11.70;;;;;;;12.44;65.20;100930.97;5113297;28;20024;-42
2022/09/03 04:37:50;;;;;;;17.00;10.85;;;;;;;12.42;65.33;100932.66;5112938;28;20023;-46
2022/09/03 04:40:15;;;;;;;22.65;12.90;;;;;;;12.38;65.86;100927.38;5113421;28;20114;-43
2022/09/03 04:42:40;;;;;;;18.77;12.68;;;;;;;12.31;65.97;100923.78;5113385;28;20023;-44
2022/09/03 04:45:07;;;;;;;23.77;11.75;;;;;;;12.41;65.99;100925.75;5112623;28;20030;-44
2022/09/03 04:47:32;;;;;;;19.45;12.52;;;;;;;12.31;66.32;100923.78;5091417;28;20402;-43
2022/09/03 04:49:58;;;;;;;19.83;12.45;;;;;;;12.30;66.58;100924.59;5091141;28;20035;-43
2022/09/03 04:52:23;;;;;;;23.17;11.70;;;;;;;12.33;66.33;100930.72;5091278;28;20028;-42
2022/09/03 04:54:49;;;;;;;21.60;12.38;;;;;;;12.16;66.70;100932.91;5092745;28;20069;-43
2022/09/03 04:57:14;;;;;;;20.25;12.40;;;;;;;12.31;65.85;100939.28;5093284;28;20028;-43
2022/09/03 04:59:41;;;;;;;20.13;11.95;;;;;;;12.18;67.11;100936.41;5092071;28;20068;-43
2022/09/03 05:02:07;;;;;;;25.98;12.30;;;;;;;12.25;66.80;100931.38;5092819;28;20103;-43
2022/09/03 05:04:32;;;;;;;21.65;12.35;;;;;;;12.24;66.81;100938.28;5093067;28;20501;-43
2022/09/03 05:06:58;;;;;;;21.92;12.20;;;;;;;12.29;67.12;100940.94;5092061;28;20028;-45
2022/09/03 05:09:23;;;;;;;21.40;11.63;;;;;;;12.28;66.61;100928.88;5092684;28;20059;-44
2022/09/03 05:11:48;;;;;;;27.02;11.75;;;;;;;12.20;66.87;100933.88;5093047;28;20029;-42
2022/09/03 05:14:13;;;;;;;23.33;11.55;;;;;;;12.29;66.69;100936.66;5091994;28;20028;-43
2022/09/03 05:16:39;;;;;;;18.75;11.05;;;;;;;12.33;66.99;100932.41;5092785;28;20024;-42
2022/09/03 05:19:04;;;;;;;20.33;12.00;;;;;;;12.25;67.22;100931.38;5092522;28;20024;-43
2022/09/03 05:21:30;;;;;;;20.23;11.30;;;;;;;12.34;66.96;100939.34;5092151;28;20475;-43
2022/09/03 05:23:58;;;;;;;19.23;11.43;;;;;;;12.29;67.41;100930.59;5092967;28;20020;-44
2022/09/03 05:26:26;;;;;;;22.45;12.30;;;;;;;12.29;67.66;100938.34;5092548;28;20024;-44
2022/09/03 05:28:55;;;;;;;18.80;11.13;;;;;;;12.32;67.96;100931.56;5091965;28;20059;-43
2022/09/03 05:31:21;;;;;;;19.38;11.43;;;;;;;12.39;67.52;100930.00;5096012;28;20031;-43
2022/09/03 05:33:52;;;;;;;18.65;11.40;;;;;;;12.46;67.08;100934.47;5096585;28;20483;-43
2022/09/03 05:36:21;;;;;;;19.00;11.18;;;;;;;12.45;68.07;100932.72;5096436;28;20074;-46
2022/09/03 05:38:47;;;;;;;20.50;11.38;;;;;;;12.48;67.10;100932.78;5096587;28;20467;-45
2022/09/03 05:41:14;;;;;;;21.20;10.70;;;;;;;12.67;65.80;100938.38;5095495;28;20055;-43
2022/09/03 05:43:40;;;;;;;23.70;11.77;;;;;;;12.67;66.45;100933.22;5096395;28;20032;-43
2022/09/03 05:46:08;;;;;;;23.98;12.05;;;;;;;12.70;66.65;100935.84;5096313;28;20050;-43
2022/09/03 05:48:36;;;;;;;19.23;11.00;;;;;;;12.74;66.89;100931.63;5095632;28;20102;-45
2022/09/03 05:51:03;;;;;;;20.88;11.50;;;;;;;12.74;66.82;100935.09;5096402;28;20039;-42
2022/09/03 05:53:30;;;;;;;20.67;11.68;;;;;;;12.79;66.47;100942.97;5096276;28;20020;-43
2022/09/03 05:55:57;;;;;;;21.70;11.10;;;;;;;12.89;65.76;100928.53;5095476;28;20034;-45
2022/09/03 05:58:24;;;;;;;21.92;11.52;;;;;;;12.91;66.89;100929.41;5095937;28;20633;-42
2022/09/03 06:00:49;;;;;;;19.73;11.93;;;;;;;12.99;66.79;100930.47;5096208;28;20058;-43
2022/09/03 06:03:15;;;;;;;18.92;11.65;;;;;;;13.01;66.64;100928.75;5095173;28;20063;-44
2022/09/03 06:05:52;;;;;;;20.88;11.40;;;;;;;13.17;65.25;100941.19;5095944;28;20016;-43
2022/09/03 06:08:17;;;;;;;22.63;11.27;;;;;;;13.32;65.34;100934.56;5095916;28;20070;-43
2022/09/03 06:10:42;;;;;;;22.65;11.75;;;;;;;13.47;65.50;100929.72;5095164;28;20638;-42
2022/09/03 06:13:07;;;;;;;19.83;12.18;;;;;;;13.54;66.87;100930.69;5095612;28;20115;-46
2022/09/03 06:15:33;;;;;;;24.80;11.48;;;;;;;13.79;64.90;100937.22;5096062;28;20455;-44
2022/09/03 06:17:58;;;;;;;22.30;11.63;;;;;;;14.02;65.06;100938.44;5095302;28;20024;-44
2022/09/03 06:20:26;;;;;;;27.35;11.43;;;;;;;14.24;63.11;100939.66;5095620;28;20379;-43
2022/09/03 06:22:52;;;;;;;20.23;11.00;;;;;;;14.41;61.81;100943.41;5095858;28;20043;-43
2022/09/03 06:25:18;;;;;;;21.42;10.30;;;;;;;14.57;61.53;100944.50;5094686;28;20475;-43
2022/09/03 06:27:43;;;;;;;18.30;11.70;;;;;;;14.73;60.81;100940.47;5095659;28;20020;-42
2022/09/03 06:30:09;;;;;;;19.40;10.82;;;;;;;14.88;60.61;100944.97;5094742;28;20032;-46
2022/09/03 06:32:43;;;;;;;27.20;10.48;;;;;;;15.06;60.03;100949.53;5095523;28;20467;-44
2022/09/03 06:35:08;;;;;;;21.95;10.88;;;;;;;15.25;59.71;100944.59;5095274;28;20467;-43
2022/09/03 06:37:38;;;;;;;22.83;9.75;;;;;;;15.40;59.47;100949.94;5094579;28;20039;-45
2022/09/03 06:40:04;;;;;;;16.63;9.70;;;;;;;15.62;59.04;100940.66;5095272;28;20024;-47
2022/09/03 06:42:30;;;;;;;17.23;9.73;;;;;;;15.67;58.20;100938.09;5093992;28;20063;-43
2022/09/03 06:44:56;;;;;;;14.23;8.98;;;;;;;15.79;57.83;100943.41;5094849;28;20048;-44
2022/09/03 06:47:22;;;;;;;18.35;9.63;;;;;;;15.94;57.72;100936.66;5095248;28;20467;-43
2022/09/03 06:49:47;;;;;;;21.08;9.07;;;;;;;16.08;56.26;100940.22;5095241;28;20040;-44
2022/09/03 06:52:12;;;;;;;17.27;8.65;;;;;;;16.31;55.85;100936.94;5094212;28;20028;-43
2022/09/03 06:54:39;;;;;;;17.58;8.30;;;;;;;16.41;55.81;100943.97;5095006;28;20035;-43
2022/09/03 06:57:04;;;;;;;18.60;8.43;;;;;;;16.56;54.91;100943.19;5095146;28;20103;-43
2022/09/03 06:59:30;;;;;;;17.88;8.57;;;;;;;16.77;55.04;100934.66;5094391;28;20119;-43
2022/09/03 07:01:57;;;;;;;19.17;8.57;;;;;;;16.89;54.27;100938.19;5095067;28;20016;-43
2022/09/03 07:04:23;;;;;;;16.50;8.30;;;;;;;16.97;53.59;100933.91;5094876;28;20098;-43
2022/09/03 07:06:49;;;;;;;20.52;8.80;;;;;;;17.16;52.67;100944.38;5094231;28;20024;-43
2022/09/03 07:09:16;;;;;;;17.90;8.50;;;;;;;17.21;52.34;100942.66;5094529;28;20039;-42
2022/09/03 07:11:45;;;;;;;19.45;8.88;;;;;;;17.28;52.59;100939.22;5094766;28;20418;-42
2022/09/03 07:14:11;;;;;;;18.15;7.93;;;;;;;17.38;52.25;100935.78;5094094;28;20096;-43
2022/09/03 07:16:37;;;;;;;22.15;8.40;;;;;;;17.47;51.76;100941.88;5094702;28;20095;-43
2022/09/03 07:19:04;;;;;;;19.88;9.50;;;;;;;17.63;51.27;100940.19;5094602;28;20421;-43
2022/09/03 07:21:32;;;;;;;27.58;9.48;;;;;;;17.69;50.86;100941.06;5093672;28;20020;-43
2022/09/03 07:23:58;;;;;;;23.08;9.82;;;;;;;17.80;50.91;100937.63;5094558;28;20020;-44
2022/09/03 07:26:29;;;;;;;23.13;9.02;;;;;;;17.88;50.41;100934.16;5093409;28;20063;-43
2022/09/03 07:28:55;;;;;;;20.73;9.60;;;;;;;18.08;51.00;100942.00;5094564;28;20035;-46
2022/09/03 07:31:26;;;;;;;26.52;9.55;;;;;;;18.02;50.66;100944.59;5094374;28;20028;-43
2022/09/03 07:33:54;;;;;;;25.20;9.80;;;;;;;18.07;50.09;100945.47;5093635;28;20044;-42
2022/09/03 07:36:20;;;;;;;;;;;;;;;18.16;51.07;100943.75;5094464;28;20077;-43
2022/09/03 07:38:45;;;;;;;20.85;9.52;;;;;;;18.19;50.26;100946.34;5094364;28;20372;-45
2022/09/03 07:41:13;;;;;;;29.20;9.73;;;;;;;18.22;49.81;100954.19;5093293;28;20082;-44
2022/09/03 07:43:45;;;;;;;24.38;10.55;;;;;;;18.36;49.51;100955.03;5094326;28;20126;-44
2022/09/03 07:46:12;;;;;;;22.52;9.95;;;;;;;18.34;48.36;100946.34;5098092;28;20016;-44
2022/09/03 07:48:42;;;;;;;29.67;10.77;;;;;;;18.49;49.56;100950.69;5096190;27;20039;-43
2022/09/03 07:51:08;;;;;;;27.40;10.73;;;;;;;18.58;48.68;100950.66;5096856;28;20343;-43
2022/09/03 07:53:34;;;;;;;25.88;11.93;;;;;;;18.70;47.94;100952.38;5093941;28;20099;-46
2022/09/03 07:56:01;;;;;;;30.40;12.23;;;;;;;18.82;48.17;100953.22;5092652;28;20043;-44
2022/09/03 07:58:30;;;;;;;34.05;12.82;;;;;;;18.85;48.25;100950.56;5111894;28;20058;-44
2022/09/03 08:00:57;;;;;;;34.83;13.10;;;;;;;19.06;47.22;100953.16;5107670;28;20045;-42
2022/09/03 08:03:22;;;;;;;30.65;12.85;;;;;;;19.17;47.55;100944.41;5111734;28;20028;-43
2022/09/03 08:05:47;;;;;;;32.55;13.13;;;;;;;19.32;47.68;100951.31;5113001;28;20378;-44
2022/09/03 08:08:13;;;;;;;36.15;14.13;;;;;;;19.41;46.63;100957.34;5114001;28;20024;-43
2022/09/03 08:10:39;;;;;;;31.98;13.38;;;;;;;19.60;46.61;100957.25;5113169;28;20161;-46
2022/09/03 08:13:05;;;;;;;34.58;13.85;;;;;;;19.59;45.94;100952.91;5101411;28;20120;-44
2022/09/03 08:15:31;;;;;;;34.72;13.70;;;;;;;19.93;46.22;100952.69;5098747;28;20547;-45
2022/09/03 08:17:58;;;;;;;33.25;14.07;;;;;;;20.01;46.27;100956.13;5093834;28;20028;-44
2022/09/03 08:20:23;;;;;;;32.55;15.45;;;;;;;20.17;45.07;100963.88;5101156;28;20053;-47
2022/09/03 08:22:48;;;;;;;42.95;15.45;;;;;;;20.26;44.95;100961.16;5113269;28;20031;-44
2022/09/03 08:25:13;;;;;;;35.95;15.57;;;;;;;20.37;45.03;100959.31;5099680;28;20093;-43
2022/09/03 08:27:39;;;;;;;40.67;15.77;;;;;;;20.42;44.46;100966.25;5093103;28;20028;-45
2022/09/03 08:30:08;;;;;;;39.45;16.00;;;;;;;20.39;44.38;100973.25;5092485;28;20391;-45
2022/09/03 08:32:33;;;;;;;38.63;15.18;;;;;;;20.34;44.13;100975.03;5094733;28;20022;-46
2022/09/03 08:34:59;;;;;;;38.00;15.80;;;;;;;20.40;44.50;100969.75;5093556;28;20106;-44
2022/09/03 08:37:27;;;;;;;38.33;16.40;;;;;;;20.68;44.67;100968.59;5090625;28;20024;-45
2022/09/03 08:39:53;;;;;;;37.22;16.80;;;;;;;20.76;44.42;100965.94;5095052;28;20016;-46
2022/09/03 08:42:38;;;;;;;40.97;16.67;;;;;;;20.87;44.14;100964.94;5092750;28;20123;-44
2022/09/03 08:45:08;;;;;;;41.80;16.40;;;;;;;20.94;43.82;100971.00;5092128;28;20077;-46
2022/09/03 08:47:42;;;;;;;36.97;16.23;;;;;;;21.11;43.84;100975.16;5093164;28;20021;-45
2022/09/03 08:50:19;;;;;;;42.30;16.30;;;;;;;21.25;43.84;100975.84;5093096;28;20039;-46
2022/09/03 08:52:51;;;;;;;;;;;;;;;21.45;44.21;100974.72;5092811;28;20382;-44
2022/09/03 08:55:28;;;;;;;44.30;15.30;;;;;;;21.49;42.61;100981.66;5092881;28;19912;-44
2022/09/03 08:58:01;;;;;;;;;;;;;;;21.64;43.03;100973.63;5092558;28;20023;-45
2022/09/03 09:00:46;;;;;;;38.40;15.13;;;;;;;21.64;43.19;100964.84;5092816;28;20383;-47
2022/09/03 09:03:43;;;;;;;39.67;16.52;;;;;;;21.77;42.33;100973.41;5092905;28;20032;-44
2022/09/03 09:06:34;;;;;;;35.58;16.48;;;;;;;21.73;42.33;100975.25;5082275;28;20058;-44
2022/09/03 09:09:11;;;;;;;40.03;15.70;;;;;;;21.80;42.55;100973.38;5091926;28;20106;-44
2022/09/03 09:11:42;;;;;;;37.78;16.77;;;;;;;21.96;41.75;100972.25;5095111;28;20570;-46
2022/09/03 09:14:15;;;;;;;41.85;16.02;;;;;;;22.42;41.34;100967.16;5103027;28;20019;-46
2022/09/03 09:17:08;;;;;;;34.15;14.25;;;;;;;22.59;42.24;100977.34;5092583;28;20107;-45
2022/09/03 09:19:48;;;;;;;33.92;15.05;;;;;;;22.59;40.37;100967.72;5091870;28;20024;-45
2022/09/03 09:22:22;;;;;;;37.95;14.38;;;;;;;22.83;40.56;100969.00;5092707;28;20039;-44
2022/09/03 09:24:52;;;;;;;37.33;14.73;;;;;;;22.86;39.54;100973.34;5092732;28;20415;-44
2022/09/03 09:27:18;;;;;;;38.95;15.43;;;;;;;23.12;39.52;100974.56;5091878;28;20077;-44
2022/09/03 09:29:48;;;;;;;36.00;13.90;;;;;;;23.23;39.77;100980.50;5092786;28;20115;-44
2022/09/03 09:32:16;;;;;;;31.65;14.73;;;;;;;23.33;38.79;100973.28;5092504;28;20368;-44
2022/09/03 09:34:42;;;;;;;28.52;13.43;;;;;;;23.45;38.06;100972.16;5091957;28;20063;-44
2022/09/03 09:37:10;;;;;;;29.55;12.90;;;;;;;24.18;38.10;100963.44;5092530;28;20054;-44
2022/09/03 09:39:36;;;;;;;33.05;13.45;;;;;;;23.85;36.60;100968.63;5092513;28;20113;-46
2022/09/03 09:42:09;;;;;;;32.10;13.63;;;;;;;24.41;37.10;100964.63;5091424;28;20454;-47
2022/09/03 09:44:37;;;;;;;32.83;12.57;;;;;;;24.14;36.16;100964.44;5092516;28;20476;-44
2022/09/03 09:47:14;;;;;;;;;;;;;;;24.47;37.62;100964.47;5092236;28;20059;-44
2022/09/03 09:49:52;;;;;;;28.90;12.38;;;;;;;25.25;35.88;100968.47;5092415;28;19912;-44
2022/09/03 09:52:18;;;;;;;23.38;11.73;;;;;;;26.11;33.98;100968.44;5092582;28;20032;-48
2022/09/03 09:54:45;;;;;;;30.27;12.02;;;;;;;26.17;32.86;100969.16;5091872;28;20032;-44
2022/09/03 09:57:17;;;;;;;26.75;11.88;;;;;;;27.23;32.47;100977.72;5092421;28;20016;-45
2022/09/03 09:59:45;;;;;;;27.73;10.70;;;;;;;27.31;31.31;100977.44;5092355;28;20476;-44
2022/09/03 10:02:16;;;;;;;20.50;9.93;;;;;;;28.26;30.53;100972.78;5091405;28;20035;-44
2022/09/03 10:04:44;;;;;;;27.25;10.18;;;;;;;28.31;30.07;100978.75;5092704;28;20039;-45
2022/09/03 10:07:23;;;;;;;24.65;9.38;;;;;;;29.13;29.50;100972.53;5092163;28;20536;-46
2022/09/03 10:10:18;;;;;;;30.42;9.88;;;;;;;29.64;28.76;100967.47;5091616;28;20088;-45
2022/09/03 10:13:08;;;;;;;27.20;11.10;;;;;;;29.83;29.13;100972.75;5092213;28;20382;-46
2022/09/03 10:16:00;;;;;;;21.67;8.80;;;;;;;29.89;28.56;100969.81;5091515;28;20013;-45
2022/09/03 10:18:43;;;;;;;20.02;7.82;;;;;;;29.50;27.32;100968.16;5095579;28;20024;-44
2022/09/03 10:21:14;;;;;;;15.82;6.25;;;;;;;29.95;27.30;100958.00;5095579;28;20376;-42
2022/09/03 10:23:45;;;;;;;17.73;7.35;;;;;;;30.16;27.15;100958.75;5095073;28;20028;-42
2022/09/03 10:26:17;;;;;;;20.10;8.15;;;;;;;30.78;26.42;100960.88;5095654;28;20067;-45
2022/09/03 10:28:49;;;;;;;17.75;7.68;;;;;;;30.73;26.12;100956.72;5095813;28;20043;-47
2022/09/03 10:31:27;;;;;;;18.88;8.18;;;;;;;31.01;26.26;100956.09;5094797;28;20028;-42
2022/09/03 10:34:01;;;;;;;19.17;7.47;;;;;;;31.21;24.82;100952.38;5095596;28;20498;-45
2022/09/03 10:36:38;;;;;;;23.42;6.47;;;;;;;30.77;25.59;100961.81;5094908;28;20073;-42
2022/09/03 10:39:03;;;;;;;;;;;;;;;31.51;26.66;100955.09;5095950;28;20031;-46
2022/09/03 10:41:46;;;;;;;13.87;6.43;;;;;;;30.64;26.06;100952.75;5095225;28;19915;-46
2022/09/03 10:44:17;;;;;;;19.75;7.55;;;;;;;30.79;25.22;100951.94;5094553;28;20038;-42
2022/09/03 10:46:58;;;;;;;18.77;8.15;;;;;;;31.69;25.41;100957.69;5095249;28;20380;-47
2022/09/03 10:50:00;;;;;;;15.80;6.75;;;;;;;31.67;25.79;100959.56;5095013;28;20028;-45
2022/09/03 10:52:30;;;;;;;11.75;5.47;;;;;;;31.15;24.80;100958.03;5094368;28;20031;-43
2022/09/03 10:55:18;;;;;;;13.52;6.13;;;;;;;31.17;24.42;100967.66;5095400;28;20027;-43
2022/09/03 10:57:57;;;;;;;13.07;6.85;;;;;;;30.54;24.60;100953.25;5094072;28;20036;-44
2022/09/03 11:00:24;;;;;;;19.10;6.75;;;;;;;30.50;25.24;100956.16;5094897;28;20027;-46
2022/09/03 11:03:17;;;;;;;18.15;7.38;;;;;;;30.62;25.62;100957.31;5094849;28;20028;-47
2022/09/03 11:05:52;;;;;;;21.30;7.30;;;;;;;31.19;25.31;100955.13;5083287;28;20040;-47
2022/09/03 11:08:33;;;;;;;18.40;6.75;;;;;;;31.36;24.10;100950.63;5094638;28;20426;-41
2022/09/03 11:11:27;;;;;;;12.07;6.40;;;;;;;31.13;24.70;100954.56;5094800;28;20111;-41
2022/09/03 11:14:00;;;;;;;13.00;6.25;;;;;;;31.82;24.71;100952.50;5094247;28;20036;-47
2022/09/03 11:16:31;;;;;;;12.07;5.13;;;;;;;32.05;24.67;100953.81;5094789;28;20070;-47
2022/09/03 11:19:03;;;;;;;13.02;5.03;;;;;;;33.26;23.03;100949.09;5093987;28;20091;-46
2022/09/03 11:21:31;;;;;;;14.77;6.22;;;;;;;33.66;22.00;100949.19;5094449;28;20020;-46
2022/09/03 11:24:09;;;;;;;15.45;6.28;;;;;;;33.15;22.17;100947.97;5094904;28;20020;-43
2022/09/03 11:26:35;;;;;;;15.65;6.20;;;;;;;33.68;21.82;100946.44;5094090;28;20028;-45
2022/09/03 11:29:29;;;;;;;17.10;5.55;;;;;;;33.94;22.94;100950.03;5094001;28;20124;-42
2022/09/03 11:32:06;;;;;;;16.15;6.13;;;;;;;33.11;22.13;100941.13;5094450;28;20031;-43
2022/09/03 11:34:43;;;;;;;13.98;5.25;;;;;;;33.22;22.60;100945.78;5093687;28;20168;-42
2022/09/03 11:37:25;;;;;;;14.95;5.78;;;;;;;33.48;22.49;100944.13;5094217;28;20028;-45